Time;durP1;ratioP1;P1;durP2;ratioP2;P2;SDS_P1;SDS_P2;PMS_P1;PMS_P2;Temp;Humidity;BMP_temperature;BMP_pressure;BME280_temperature;BME280_humidity;BME280_pressure;Samples;Min_cycle;Max_cycle;Signal;HPM_P1;HPM_P2
2023/06/27 00:00:54;;;;;;;4.20;1.83;;;18.80;98.70;;;;;;5045911;28;20467;-91
2023/06/27 00:03:24;;;;;;;2.87;1.80;;;18.80;99.10;;;;;;5042691;28;20488;-92
2023/06/27 00:05:54;;;;;;;1.90;1.50;;;18.70;99.30;;;;;;5038802;28;21016;-92
2023/06/27 00:08:35;;;;;;;1.63;1.50;;;18.60;99.30;;;;;;5039446;28;20519;-92
2023/06/27 00:11:24;;;;;;;2.80;1.47;;;18.60;99.10;;;;;;5039626;28;20460;-92
2023/06/27 00:13:51;;;;;;;3.23;1.67;;;18.60;98.60;;;;;;5040367;28;20877;-91
2023/06/27 00:16:32;;;;;;;2.40;1.70;;;18.50;97.70;;;;;;5041545;28;20991;-92
2023/06/27 00:19:04;;;;;;;1.60;1.50;;;18.60;98.40;;;;;;5041979;28;20471;-92
2023/06/27 00:21:37;;;;;;;1.77;1.67;;;18.60;98.00;;;;;;5040757;28;20469;-92
2023/06/27 00:24:07;;;;;;;2.80;1.63;;;18.50;98.00;;;;;;5039042;28;20462;-91
2023/06/27 00:35:44;;;;;;;2.70;1.43;;;18.60;98.00;;;;;;5027530;28;20457;-91
2023/06/27 00:44:35;;;;;;;3.17;2.30;;;18.60;98.10;;;;;;5036848;28;20452;-91
2023/06/27 00:51:01;;;;;;;;;;;;;;;;;;;;;
2023/06/27 00:56:51;;;;;;;3.40;1.90;;;18.50;98.60;;;;;;5035938;28;20467;-92
2023/06/27 00:59:43;;;;;;;3.90;2.17;;;18.50;98.50;;;;;;5040164;28;20928;-91
2023/06/27 01:02:52;;;;;;;1.80;1.63;;;18.40;98.50;;;;;;5040818;28;20532;-92
2023/06/27 01:15:04;;;;;;;1.43;1.30;;;18.40;98.80;;;;;;5036990;28;20454;-91
2023/06/27 01:21:09;;;;;;;2.00;1.60;;;18.30;98.70;;;;;;5036663;28;20482;-91
2023/06/27 01:30:23;;;;;;;3.13;1.97;;;18.40;98.70;;;;;;5048842;28;20461;-91
2023/06/27 01:32:54;;;;;;;3.03;2.10;;;18.40;98.60;;;;;;5039065;28;20556;-92
2023/06/27 01:35:27;;;;;;;2.20;1.73;;;18.40;98.80;;;;;;5039453;28;21014;-91
2023/06/27 01:41:27;;;;;;;1.90;1.73;;;18.40;99.10;;;;;;5037665;28;20461;-92
2023/06/27 01:44:14;;;;;;;4.63;1.70;;;18.30;99.10;;;;;;5038724;28;20464;-91
2023/06/27 01:50:10;;;;;;;3.40;2.00;;;18.40;98.70;;;;;;5031884;28;20951;-91
2023/06/27 01:52:38;;;;;;;2.20;2.00;;;18.30;99.10;;;;;;5032741;28;20557;-92
2023/06/27 01:58:24;;;;;;;1.97;1.77;;;18.40;99.20;;;;;;5028592;28;20540;-92
2023/06/27 02:01:05;;;;;;;3.80;1.50;;;18.30;98.80;;;;;;5039609;28;20977;-92
2023/06/27 02:04:08;;;;;;;1.73;1.33;;;18.30;98.90;;;;;;5038412;28;20488;-92
2023/06/27 02:09:25;;;;;;;3.73;1.90;;;18.30;99.20;;;;;;5039221;28;20459;-92
2023/06/27 02:11:52;;;;;;;2.90;2.03;;;18.30;99.50;;;;;;5044938;28;20486;-92
2023/06/27 02:14:20;;;;;;;2.83;1.73;;;18.30;99.20;;;;;;5046012;28;20539;-92
2023/06/27 02:16:46;;;;;;;2.53;1.80;;;18.20;99.10;;;;;;5041029;28;20477;-91
2023/06/27 02:19:13;;;;;;;1.73;1.63;;;18.20;99.10;;;;;;5040596;28;20476;-92
2023/06/27 02:21:40;;;;;;;3.10;1.77;;;18.20;99.10;;;;;;5040803;28;20484;-91
2023/06/27 02:24:07;;;;;;;2.40;2.20;;;18.20;99.30;;;;;;5040241;28;20552;-91
2023/06/27 02:27:20;;;;;;;;;;;;;;;;;;;;;
2023/06/27 02:29:48;;;;;;;1.80;1.47;;;18.10;99.40;;;;;;5017837;28;20467;-91
2023/06/27 02:32:15;;;;;;;3.63;1.53;;;18.10;99.10;;;;;;5041687;28;20482;-94
2023/06/27 02:34:42;;;;;;;3.83;1.50;;;18.10;99.50;;;;;;5041750;28;20464;-93
2023/06/27 02:37:09;;;;;;;2.80;1.90;;;18.10;99.60;;;;;;5042847;28;20480;-94
2023/06/27 02:39:35;;;;;;;2.70;1.67;;;18.10;99.30;;;;;;5045027;28;20465;-95
2023/06/27 02:42:02;;;;;;;1.70;1.47;;;18.00;99.50;;;;;;5041289;28;20476;-95
2023/06/27 02:44:29;;;;;;;3.77;2.07;;;18.00;99.30;;;;;;5041511;28;20470;-94
2023/06/27 02:47:02;;;;;;;1.80;1.70;;;18.00;99.50;;;;;;5040963;28;20514;-94
2023/06/27 02:49:29;;;;;;;2.90;1.60;;;18.00;99.80;;;;;;5040946;28;20994;-94
2023/06/27 02:52:30;;;;;;;3.30;2.00;;;18.00;99.30;;;;;;5040663;28;20502;-94
2023/06/27 02:54:57;;;;;;;1.93;1.53;;;17.90;99.50;;;;;;5033308;28;20955;-94
2023/06/27 02:57:23;;;;;;;2.13;1.93;;;17.90;99.80;;;;;;5040227;28;20476;-94
2023/06/27 02:59:50;;;;;;;2.00;1.43;;;17.90;99.70;;;;;;5040358;28;20467;-94
2023/06/27 03:02:58;;;;;;;1.87;1.37;;;17.90;99.90;;;;;;5039993;28;20871;-94
2023/06/27 03:05:45;;;;;;;2.20;2.00;;;17.90;99.30;;;;;;5040049;28;20520;-94
2023/06/27 03:08:12;;;;;;;1.90;1.50;;;17.90;99.60;;;;;;5040154;28;20520;-94
2023/06/27 03:10:38;;;;;;;3.00;1.63;;;17.90;99.50;;;;;;5039766;28;20465;-95
2023/06/27 03:13:05;;;;;;;4.03;2.23;;;17.90;99.50;;;;;;5040102;28;20488;-94
2023/06/27 03:15:32;;;;;;;2.63;2.00;;;17.80;99.50;;;;;;5040757;28;20483;-94
2023/06/27 03:18:01;;;;;;;2.30;1.93;;;17.80;99.40;;;;;;5039648;28;21032;-94
2023/06/27 03:20:27;;;;;;;3.17;2.00;;;17.80;99.70;;;;;;5040438;28;20471;-94
2023/06/27 03:23:06;;;;;;;2.57;2.33;;;17.80;99.50;;;;;;5041833;28;20486;-94
2023/06/27 03:25:33;;;;;;;2.13;1.77;;;17.80;99.90;;;;;;5043921;28;20547;-94
2023/06/27 03:28:20;;;;;;;2.70;1.80;;;17.80;99.90;;;;;;5042818;28;20469;-94
2023/06/27 03:30:47;;;;;;;1.80;1.60;;;17.80;99.90;;;;;;5048723;28;20461;-94
2023/06/27 03:33:34;;;;;;;2.93;1.73;;;17.70;99.90;;;;;;5044910;28;20487;-94
2023/06/27 03:36:13;;;;;;;1.63;1.53;;;17.80;99.90;;;;;;5044839;28;20456;-94
2023/06/27 03:38:40;;;;;;;1.97;1.87;;;17.70;99.90;;;;;;5042088;28;20523;-94
2023/06/27 03:41:06;;;;;;;2.00;1.60;;;17.70;99.90;;;;;;5040958;28;20452;-94
2023/06/27 03:43:33;;;;;;;1.90;1.70;;;17.70;99.90;;;;;;5042773;28;20500;-94
2023/06/27 03:46:00;;;;;;;2.53;1.50;;;17.60;99.90;;;;;;5047049;28;20246;-94
2023/06/27 03:48:30;;;;;;;2.57;1.50;;;17.60;99.90;;;;;;5045764;28;20450;-94
2023/06/27 03:50:58;;;;;;;2.77;2.53;;;17.60;99.90;;;;;;5047156;28;20473;-94
2023/06/27 03:53:25;;;;;;;1.70;1.60;;;17.60;99.90;;;;;;5047624;28;20481;-95
2023/06/27 03:55:52;;;;;;;2.63;1.73;;;17.60;99.90;;;;;;5046590;28;20440;-94
2023/06/27 03:58:19;;;;;;;3.00;1.80;;;17.50;99.90;;;;;;5044876;28;20515;-96
2023/06/27 04:00:46;;;;;;;3.53;1.63;;;17.50;99.90;;;;;;5047015;28;20517;-92
2023/06/27 04:03:12;;;;;;;2.13;1.73;;;17.50;99.80;;;;;;5048541;28;20592;-94
2023/06/27 04:05:42;;;;;;;2.00;1.77;;;17.50;99.90;;;;;;5048602;28;20434;-95
2023/06/27 04:08:11;;;;;;;2.70;1.50;;;17.50;99.90;;;;;;5049036;28;20431;-96
2023/06/27 04:10:42;;;;;;;2.23;1.87;;;17.50;99.90;;;;;;5049012;28;20457;-94
2023/06/27 04:13:08;;;;;;;2.40;1.80;;;17.50;99.80;;;;;;5048998;28;20458;-95
2023/06/27 04:15:39;;;;;;;3.10;2.00;;;17.50;99.80;;;;;;5045389;28;20455;-96
2023/06/27 04:18:06;;;;;;;3.73;1.50;;;17.50;99.90;;;;;;5046088;28;20533;-94
2023/06/27 04:20:33;;;;;;;2.00;1.80;;;17.50;99.90;;;;;;5047316;28;20440;-92
2023/06/27 04:22:59;;;;;;;2.50;1.60;;;17.50;99.70;;;;;;5051812;28;20453;-95
2023/06/27 04:25:32;;;;;;;2.53;1.60;;;17.60;99.90;;;;;;5048152;28;20488;-91
2023/06/27 04:27:59;;;;;;;2.57;2.33;;;17.50;99.90;;;;;;5026908;28;20471;-90
2023/06/27 04:30:26;;;;;;;1.67;1.23;;;17.50;99.90;;;;;;5030876;28;20458;-91
2023/06/27 04:32:53;;;;;;;2.40;1.90;;;17.50;99.80;;;;;;5028955;28;21036;-91
2023/06/27 04:35:20;;;;;;;2.90;1.80;;;17.50;99.90;;;;;;5023395;28;20469;-90
2023/06/27 04:37:47;;;;;;;2.00;1.40;;;17.50;99.90;;;;;;5019053;28;20480;-90
2023/06/27 04:40:18;;;;;;;3.00;1.83;;;17.50;99.90;;;;;;5022975;28;20472;-89
2023/06/27 04:42:46;;;;;;;2.13;1.80;;;17.50;99.90;;;;;;5043177;28;20544;-91
2023/06/27 04:45:13;;;;;;;4.60;1.90;;;17.50;99.90;;;;;;5040464;28;20473;-91
2023/06/27 04:47:42;;;;;;;3.77;1.60;;;17.50;99.90;;;;;;5042863;28;20461;-91
2023/06/27 04:50:14;;;;;;;3.70;2.20;;;17.50;99.90;;;;;;5046325;28;20480;-90
2023/06/27 04:52:44;;;;;;;4.67;1.70;;;17.50;99.90;;;;;;5036902;28;20567;-91
2023/06/27 04:55:12;;;;;;;1.97;1.47;;;17.50;99.90;;;;;;5028995;28;20465;-91
2023/06/27 04:57:39;;;;;;;2.43;1.53;;;17.50;99.90;;;;;;5019018;28;20485;-91
2023/06/27 05:00:11;;;;;;;2.10;1.67;;;17.50;99.90;;;;;;5029180;28;20453;-91
2023/06/27 05:02:37;;;;;;;1.50;1.30;;;17.50;99.90;;;;;;5029849;28;20917;-91
2023/06/27 05:05:07;;;;;;;1.57;1.30;;;17.50;99.90;;;;;;5032316;28;20467;-92
2023/06/27 05:07:44;;;;;;;3.13;1.57;;;17.50;99.90;;;;;;5018823;28;20455;-91
2023/06/27 05:10:22;;;;;;;1.67;1.57;;;17.50;99.90;;;;;;5016485;28;20523;-91
2023/06/27 05:12:49;;;;;;;2.00;1.53;;;17.50;99.90;;;;;;5016527;28;20551;-91
2023/06/27 05:15:21;;;;;;;2.63;1.83;;;17.50;99.90;;;;;;5016465;28;20557;-93
2023/06/27 05:17:52;;;;;;;1.70;1.43;;;17.50;99.90;;;;;;5016434;28;20844;-91
2023/06/27 05:20:19;;;;;;;1.63;1.20;;;17.50;99.90;;;;;;5015516;28;20466;-92
2023/06/27 05:22:46;;;;;;;6.13;2.50;;;17.60;99.90;;;;;;5017992;28;20886;-91
2023/06/27 05:25:14;;;;;;;2.70;1.60;;;17.60;99.70;;;;;;5017587;28;20472;-91
2023/06/27 05:27:40;;;;;;;4.30;1.60;;;17.60;99.80;;;;;;5015538;28;20821;-92
2023/06/27 05:30:08;;;;;;;4.20;1.90;;;17.60;99.90;;;;;;5015996;28;20470;-91
2023/06/27 05:32:36;;;;;;;1.73;1.60;;;17.70;99.90;;;;;;5015262;28;20991;-91
2023/06/27 05:35:23;;;;;;;3.20;1.80;;;17.70;99.90;;;;;;5016444;28;20470;-91
2023/06/27 05:38:05;;;;;;;2.93;1.80;;;17.70;99.90;;;;;;5015727;28;20477;-91
2023/06/27 05:40:32;;;;;;;1.53;1.40;;;17.70;99.90;;;;;;5023471;28;20458;-92
2023/06/27 05:42:58;;;;;;;2.10;1.90;;;17.70;99.90;;;;;;5021550;23;20494;-90
2023/06/27 05:45:25;;;;;;;1.70;1.50;;;17.70;99.90;;;;;;5055887;28;20487;-90
2023/06/27 05:47:53;;;;;;;1.70;1.30;;;17.70;99.90;;;;;;5054534;28;20884;-89
2023/06/27 05:50:20;;;;;;;1.70;1.40;;;17.80;99.90;;;;;;5055124;28;20463;-89
2023/06/27 05:52:47;;;;;;;1.83;1.43;;;17.80;99.90;;;;;;5055935;28;20494;-89
2023/06/27 05:55:15;;;;;;;1.73;1.50;;;17.80;99.90;;;;;;5055176;28;20466;-89
2023/06/27 05:57:43;;;;;;;1.30;1.20;;;17.80;99.90;;;;;;5046801;28;20482;-89
2023/06/27 06:00:13;;;;;;;1.90;1.40;;;17.80;99.90;;;;;;5055130;28;20457;-89
2023/06/27 06:02:42;;;;;;;2.53;1.40;;;17.90;99.90;;;;;;5054487;28;20478;-89
2023/06/27 06:05:11;;;;;;;3.73;2.20;;;17.90;99.90;;;;;;5053636;28;20469;-90
2023/06/27 06:07:42;;;;;;;2.10;1.63;;;17.90;99.90;;;;;;5054278;28;20456;-89
2023/06/27 06:10:09;;;;;;;3.83;2.00;;;18.00;99.90;;;;;;5055064;28;20499;-90
2023/06/27 06:12:36;;;;;;;1.60;1.33;;;18.10;99.90;;;;;;5054688;28;20477;-89
2023/06/27 06:15:05;;;;;;;5.93;1.70;;;18.10;99.90;;;;;;5056810;28;20462;-93
2023/06/27 06:17:32;;;;;;;1.70;1.30;;;18.20;99.90;;;;;;5054233;28;20485;-92
2023/06/27 06:19:59;;;;;;;2.60;1.60;;;18.20;99.90;;;;;;5057538;28;20463;-93
2023/06/27 06:22:27;;;;;;;2.13;1.60;;;18.30;99.90;;;;;;5056570;28;20478;-93
2023/06/27 06:24:54;;;;;;;1.93;1.83;;;18.30;99.90;;;;;;5056766;28;20457;-93
2023/06/27 06:27:21;;;;;;;1.70;1.50;;;18.30;99.90;;;;;;5059447;28;20551;-93
2023/06/27 06:29:48;;;;;;;1.80;1.60;;;18.20;99.40;;;;;;5062667;28;20555;-94
2023/06/27 06:32:15;;;;;;;1.37;1.27;;;18.30;99.90;;;;;;5064875;28;20559;-93
2023/06/27 06:34:42;;;;;;;1.80;1.50;;;18.30;99.90;;;;;;5067857;28;20474;-92
2023/06/27 06:37:09;;;;;;;1.90;1.30;;;18.30;99.90;;;;;;5060417;28;20485;-94
2023/06/27 06:39:37;;;;;;;2.20;2.00;;;18.40;99.80;;;;;;5061940;28;20518;-92
2023/06/27 06:42:05;;;;;;;1.60;1.50;;;18.40;99.20;;;;;;5071144;28;20521;-94
2023/06/27 06:44:32;;;;;;;1.67;1.50;;;18.40;98.70;;;;;;5067673;23;20501;-68
2023/06/27 06:46:58;;;;;;;1.73;1.50;;;18.40;99.70;;;;;;5034662;28;20481;-69
2023/06/27 06:49:25;;;;;;;3.10;2.10;;;18.40;98.70;;;;;;5049737;28;20492;-71
2023/06/27 06:51:53;;;;;;;4.80;1.77;;;18.50;98.10;;;;;;5050285;28;20466;-71
2023/06/27 06:54:20;;;;;;;3.00;1.27;;;18.60;99.20;;;;;;5048847;28;20489;-70
2023/06/27 06:56:49;;;;;;;1.40;1.20;;;18.70;98.70;;;;;;5049456;28;20568;-70
2023/06/27 06:59:16;;;;;;;2.63;1.60;;;18.80;98.00;;;;;;5051702;28;20999;-75
2023/06/27 07:01:43;;;;;;;2.00;1.70;;;18.80;97.70;;;;;;5053134;28;20522;-71
2023/06/27 07:04:10;;;;;;;2.13;1.70;;;18.90;98.10;;;;;;5053507;28;20471;-70
2023/06/27 07:06:37;;;;;;;4.80;1.50;;;18.90;98.50;;;;;;5053067;28;20809;-71
2023/06/27 07:09:04;;;;;;;3.30;1.93;;;19.00;97.80;;;;;;5053671;28;20496;-69
2023/06/27 07:11:31;;;;;;;2.37;1.93;;;19.10;97.70;;;;;;5053015;28;20458;-70
2023/06/27 07:14:00;;;;;;;2.67;1.23;;;19.10;96.30;;;;;;5053336;28;20465;-68
2023/06/27 07:16:27;;;;;;;2.70;1.27;;;19.10;97.30;;;;;;5051788;28;20503;-69
2023/06/27 07:18:54;;;;;;;2.13;1.63;;;19.10;98.50;;;;;;5052892;28;20877;-70
2023/06/27 07:21:20;;;;;;;1.73;1.50;;;19.20;98.60;;;;;;5052901;28;20468;-69
2023/06/27 07:23:47;;;;;;;3.30;2.10;;;19.20;97.50;;;;;;5052904;28;20462;-72
2023/06/27 07:26:14;;;;;;;1.57;1.40;;;19.20;98.30;;;;;;5052419;28;20476;-69
2023/06/27 07:28:40;;;;;;;1.97;1.40;;;19.20;98.70;;;;;;5044832;28;20477;-70
2023/06/27 07:31:09;;;;;;;2.70;1.40;;;19.20;97.80;;;;;;5052143;28;20973;-71
2023/06/27 07:33:35;;;;;;;1.77;1.47;;;19.20;98.70;;;;;;5052369;28;20960;-67
2023/06/27 07:36:02;;;;;;;3.27;2.27;;;19.30;97.90;;;;;;5052620;28;20471;-69
2023/06/27 07:38:29;;;;;;;2.30;1.70;;;19.30;98.10;;;;;;5051629;28;20494;-68
2023/06/27 07:40:58;;;;;;;1.83;1.50;;;19.30;97.80;;;;;;5060534;28;20463;-70
2023/06/27 07:43:25;;;;;;;3.77;1.93;;;19.30;96.70;;;;;;5051787;28;20556;-68
2023/06/27 07:45:52;;;;;;;2.07;1.40;;;19.20;97.00;;;;;;5053139;28;20818;-68
2023/06/27 07:48:20;;;;;;;5.57;1.73;;;19.30;97.10;;;;;;5052331;28;20471;-70
2023/06/27 07:50:47;;;;;;;5.67;2.13;;;19.30;97.80;;;;;;5052983;28;20458;-68
2023/06/27 07:53:14;;;;;;;2.10;1.63;;;19.40;98.00;;;;;;5052384;28;20850;-67
2023/06/27 07:55:41;;;;;;;3.07;1.60;;;19.50;96.10;;;;;;5043935;28;20454;-68
2023/06/27 07:58:09;;;;;;;1.40;1.30;;;19.50;97.80;;;;;;5051974;28;20537;-68
2023/06/27 08:00:36;;;;;;;1.70;1.60;;;19.60;98.50;;;;;;5052279;28;20476;-70
2023/06/27 08:03:03;;;;;;;2.00;1.70;;;19.70;97.60;;;;;;5052288;28;20466;-69
2023/06/27 08:05:34;;;;;;;5.33;1.67;;;19.80;98.60;;;;;;5052456;28;20466;-69
2023/06/27 08:08:02;;;;;;;2.03;1.53;;;19.90;98.50;;;;;;5052164;28;20549;-69
2023/06/27 08:10:29;;;;;;;1.60;1.50;;;20.00;97.60;;;;;;5098867;22;20496;-91
2023/06/27 08:12:56;;;;;;;2.03;1.60;;;20.10;98.10;;;;;;5034416;28;20511;-91
2023/06/27 08:15:26;;;;;;;2.57;1.87;;;20.20;98.10;;;;;;5037263;28;20469;-91
2023/06/27 08:18:00;;;;;;;1.73;1.47;;;20.30;96.80;;;;;;5037994;28;20519;-91
2023/06/27 08:20:33;;;;;;;1.60;1.50;;;20.50;98.00;;;;;;5039465;28;20468;-91
2023/06/27 08:23:05;;;;;;;3.17;2.30;;;20.50;96.00;;;;;;5038204;28;20583;-91
2023/06/27 08:25:43;;;;;;;1.73;1.60;;;20.60;97.20;;;;;;5039199;28;20463;-91
2023/06/27 08:28:10;;;;;;;1.90;1.63;;;20.80;98.00;;;;;;5039794;28;20827;-92
2023/06/27 08:30:38;;;;;;;1.40;1.30;;;20.90;97.80;;;;;;5037731;28;20894;-91
2023/06/27 08:33:06;;;;;;;2.43;1.70;;;21.00;97.90;;;;;;5039690;28;20478;-92
2023/06/27 08:35:34;;;;;;;2.97;1.97;;;21.00;97.70;;;;;;5038965;28;20468;-91
2023/06/27 08:38:15;;;;;;;2.53;1.73;;;20.90;96.80;;;;;;5040066;28;20488;-92
2023/06/27 08:40:54;;;;;;;2.00;1.73;;;20.80;96.20;;;;;;5043601;28;20463;-94
2023/06/27 08:43:22;;;;;;;2.43;1.63;;;20.70;96.80;;;;;;5048321;28;21076;-90
2023/06/27 08:45:50;;;;;;;2.20;1.60;;;20.70;96.40;;;;;;5035628;28;20969;-91
2023/06/27 08:48:18;;;;;;;1.70;1.60;;;20.60;97.00;;;;;;5035635;28;20459;-90
2023/06/27 08:50:45;;;;;;;2.60;1.50;;;20.50;97.80;;;;;;5036257;28;20506;-90
2023/06/27 08:53:14;;;;;;;2.70;1.77;;;20.50;96.90;;;;;;5037448;28;20564;-90
2023/06/27 08:56:00;;;;;;;2.13;1.87;;;20.60;96.80;;;;;;5037274;28;20478;-91
2023/06/27 08:58:32;;;;;;;2.03;1.83;;;20.80;97.80;;;;;;5036832;28;20523;-90
2023/06/27 09:00:59;;;;;;;2.37;2.03;;;21.10;97.00;;;;;;5037809;28;20457;-91
2023/06/27 09:03:27;;;;;;;2.20;1.90;;;21.30;96.00;;;;;;5038098;28;20487;-91
2023/06/27 09:05:54;;;;;;;2.60;2.10;;;21.40;95.10;;;;;;5045494;28;20441;-92
2023/06/27 09:08:21;;;;;;;2.30;2.00;;;21.40;95.60;;;;;;5054371;28;20459;-90
2023/06/27 09:10:49;;;;;;;3.87;2.00;;;21.40;96.40;;;;;;5036876;28;20564;-90
2023/06/27 09:13:18;;;;;;;2.90;2.07;;;21.30;96.70;;;;;;5036486;28;21005;-90
2023/06/27 09:15:46;;;;;;;1.93;1.60;;;21.30;97.70;;;;;;5036117;28;20539;-90
2023/06/27 09:18:13;;;;;;;2.10;1.90;;;21.40;97.10;;;;;;5035533;28;20896;-90
2023/06/27 09:20:40;;;;;;;1.90;1.70;;;21.50;96.70;;;;;;5037238;28;20456;-90
2023/06/27 09:23:07;;;;;;;1.90;1.77;;;21.70;96.60;;;;;;5037248;28;20484;-90
2023/06/27 09:25:34;;;;;;;5.27;2.00;;;21.80;96.20;;;;;;5038083;28;20767;-90
2023/06/27 09:28:15;;;;;;;2.90;2.17;;;21.90;96.60;;;;;;5036861;28;20951;-91
2023/06/27 09:30:51;;;;;;;2.47;1.90;;;21.90;96.80;;;;;;5040259;28;20553;-91
2023/06/27 09:33:19;;;;;;;2.07;1.87;;;22.00;97.30;;;;;;5040321;28;20980;-91
2023/06/27 09:35:46;;;;;;;2.40;1.77;;;22.00;96.70;;;;;;5039935;28;20467;-92
2023/06/27 09:38:13;;;;;;;3.43;2.20;;;21.90;95.50;;;;;;5041310;28;20493;-91
2023/06/27 09:40:40;;;;;;;14.70;2.60;;;21.70;96.40;;;;;;5042797;28;20467;-92
2023/06/27 09:43:09;;;;;;;2.23;1.83;;;21.40;96.10;;;;;;5041384;28;20497;-92
2023/06/27 09:45:37;;;;;;;2.70;2.17;;;21.30;96.00;;;;;;5041257;28;20457;-92
2023/06/27 09:48:04;;;;;;;4.07;1.90;;;21.20;96.60;;;;;;5041271;28;20467;-91
2023/06/27 09:50:32;;;;;;;2.40;1.77;;;21.10;96.10;;;;;;5042303;28;20469;-91
2023/06/27 09:53:00;;;;;;;3.00;1.40;;;21.10;96.60;;;;;;5037120;28;20500;-91
2023/06/27 09:55:28;;;;;;;2.87;1.83;;;21.10;97.20;;;;;;5038962;28;20468;-90
2023/06/27 09:57:55;;;;;;;2.00;1.60;;;21.20;96.80;;;;;;5039042;28;20589;-90
2023/06/27 10:00:26;;;;;;;4.77;2.43;;;21.30;95.90;;;;;;5039643;28;20479;-90
2023/06/27 10:02:54;;;;;;;3.20;1.87;;;21.40;93.20;;;;;;5057709;28;20494;-90
2023/06/27 10:05:22;;;;;;;2.00;1.80;;;21.30;94.30;;;;;;5057729;28;20490;-90
2023/06/27 10:07:51;;;;;;;1.83;1.73;;;21.20;95.40;;;;;;5057717;28;20471;-90
2023/06/27 10:10:21;;;;;;;2.80;1.77;;;21.20;94.10;;;;;;5059604;28;20467;-91
2023/06/27 10:12:48;;;;;;;2.63;2.10;;;21.30;96.50;;;;;;5058083;28;20480;-91
2023/06/27 10:15:15;;;;;;;2.87;2.03;;;21.30;95.50;;;;;;5058411;28;20534;-91
2023/06/27 10:17:45;;;;;;;6.43;2.17;;;21.30;95.20;;;;;;5059073;28;20469;-91
2023/06/27 10:20:13;;;;;;;1.70;1.60;;;21.40;95.50;;;;;;5058548;28;20526;-89
2023/06/27 10:22:44;;;;;;;2.20;2.00;;;21.40;95.50;;;;;;5057083;28;20512;-90
2023/06/27 10:25:11;;;;;;;2.80;1.93;;;21.40;95.50;;;;;;5056978;28;20831;-90
2023/06/27 10:27:42;;;;;;;2.70;2.10;;;21.30;96.40;;;;;;5055644;28;20460;-91
2023/06/27 10:30:23;;;;;;;3.00;2.00;;;21.30;96.40;;;;;;5056498;28;20466;-90
2023/06/27 10:32:53;;;;;;;1.63;1.53;;;21.30;96.00;;;;;;5058886;28;20487;-90
2023/06/27 10:35:26;;;;;;;3.50;1.97;;;21.30;96.70;;;;;;5059217;28;20459;-89
2023/06/27 10:38:08;;;;;;;2.30;1.77;;;21.40;97.10;;;;;;5059284;28;20452;-90
2023/06/27 10:41:13;;;;;;;3.00;2.10;;;21.40;95.80;;;;;;5059572;28;20448;-91
2023/06/27 10:43:41;;;;;;;1.83;1.50;;;21.50;97.50;;;;;;5058978;28;20547;-90
2023/06/27 10:46:19;;;;;;;1.67;1.43;;;21.60;97.00;;;;;;5060940;28;20463;-91
2023/06/27 10:48:59;;;;;;;1.97;1.77;;;21.60;97.60;;;;;;5064295;28;20456;-90
2023/06/27 10:51:35;;;;;;;5.10;2.10;;;21.70;97.70;;;;;;5070322;28;20475;-91
2023/06/27 10:54:18;;;;;;;3.13;1.77;;;21.70;98.10;;;;;;5066144;28;20502;-90
2023/06/27 10:56:46;;;;;;;2.63;1.77;;;21.70;97.20;;;;;;5063238;28;20547;-89
2023/06/27 10:59:16;;;;;;;1.90;1.70;;;21.70;96.70;;;;;;5061062;28;20577;-91
2023/06/27 11:01:45;;;;;;;2.90;1.90;;;21.60;97.00;;;;;;5060372;28;20884;-90
2023/06/27 11:04:21;;;;;;;7.73;1.70;;;21.60;96.70;;;;;;5062068;28;20569;-91
2023/06/27 11:06:49;;;;;;;1.57;1.40;;;21.60;95.90;;;;;;5059716;28;20479;-91
2023/06/27 11:09:18;;;;;;;2.97;1.70;;;21.50;97.10;;;;;;5061685;28;20551;-90
2023/06/27 11:11:55;;;;;;;2.50;2.13;;;21.60;98.30;;;;;;5060202;28;20463;-91
2023/06/27 11:14:35;;;;;;;2.40;2.20;;;21.60;95.20;;;;;;5061259;28;20949;-89
2023/06/27 11:17:03;;;;;;;4.93;2.20;;;21.70;95.40;;;;;;5059556;28;20460;-90
2023/06/27 11:19:32;;;;;;;3.20;2.07;;;21.60;96.70;;;;;;5049471;28;20486;-89
2023/06/27 11:22:00;;;;;;;1.50;1.40;;;21.60;96.40;;;;;;5020847;28;20458;-89
2023/06/27 11:24:29;;;;;;;2.90;2.07;;;21.60;96.30;;;;;;5030555;28;20487;-90
2023/06/27 11:26:56;;;;;;;2.70;2.23;;;21.60;94.10;;;;;;5042970;28;20465;-88
2023/06/27 11:29:28;;;;;;;2.70;2.17;;;21.60;96.70;;;;;;5040568;28;20816;-89
2023/06/27 11:31:56;;;;;;;3.43;2.20;;;21.60;97.50;;;;;;5040586;28;20824;-88
2023/06/27 11:34:24;;;;;;;5.00;1.90;;;21.60;97.90;;;;;;5039437;28;20501;-89
2023/06/27 11:36:54;;;;;;;2.93;2.10;;;21.50;95.80;;;;;;5040013;28;20465;-90
2023/06/27 11:39:20;;;;;;;2.27;1.97;;;21.40;96.30;;;;;;5040083;28;21001;-89
2023/06/27 11:41:47;;;;;;;3.20;2.20;;;21.40;95.90;;;;;;5041345;28;20469;-90
2023/06/27 11:44:21;;;;;;;2.23;1.93;;;21.40;96.30;;;;;;5074403;23;20485;-94
2023/06/27 11:46:48;;;;;;;1.97;1.77;;;21.40;96.50;;;;;;5065146;28;20464;-93
2023/06/27 11:49:24;;;;;;;2.77;2.17;;;21.60;97.20;;;;;;5069542;28;20464;-94
2023/06/27 11:51:59;;;;;;;5.13;2.37;;;21.70;96.10;;;;;;5071471;28;20538;-94
2023/06/27 11:54:26;;;;;;;3.00;1.97;;;21.70;96.30;;;;;;5084168;28;20476;-94
2023/06/27 11:56:58;;;;;;;3.40;2.20;;;21.90;96.30;;;;;;5086093;28;20526;-95
2023/06/27 11:59:40;;;;;;;;;;;;;;;;;;;;;
2023/06/27 12:02:10;;;;;;;2.67;2.10;;;22.10;96.00;;;;;;5083070;28;20573;-93
2023/06/27 12:04:48;;;;;;;2.70;2.50;;;22.10;97.40;;;;;;5084486;28;20490;-94
2023/06/27 12:07:44;;;;;;;4.40;2.43;;;22.20;96.00;;;;;;5081735;28;20958;-96
2023/06/27 12:10:24;;;;;;;2.53;2.20;;;22.30;95.80;;;;;;5082904;28;20461;-94
2023/06/27 12:13:10;;;;;;;2.90;1.97;;;22.50;96.70;;;;;;5084269;28;20499;-93
2023/06/27 12:15:45;;;;;;;2.40;1.80;;;22.50;95.90;;;;;;5090311;28;20464;-94
2023/06/27 12:18:22;;;;;;;2.47;1.80;;;22.50;96.30;;;;;;5094251;28;20493;-94
2023/06/27 12:20:49;;;;;;;1.83;1.70;;;22.40;94.90;;;;;;5093901;28;20486;-95
2023/06/27 12:23:17;;;;;;;3.67;2.40;;;22.30;96.30;;;;;;5094329;28;20463;-95
2023/06/27 12:25:51;;;;;;;2.20;1.80;;;22.30;96.70;;;;;;5095042;28;20476;-95
2023/06/27 12:28:25;;;;;;;3.33;2.10;;;22.30;97.00;;;;;;5093999;28;20468;-94
2023/06/27 12:30:57;;;;;;;1.73;1.63;;;22.40;96.70;;;;;;5083211;28;20450;-93
2023/06/27 12:33:26;;;;;;;2.23;2.00;;;22.40;96.30;;;;;;5084141;28;20481;-94
2023/06/27 12:35:59;;;;;;;2.37;1.90;;;22.60;96.10;;;;;;5087208;28;20467;-93
2023/06/27 12:38:47;;;;;;;2.93;2.20;;;22.70;96.60;;;;;;5088121;28;20473;-95
2023/06/27 12:41:19;;;;;;;1.90;1.80;;;22.90;95.70;;;;;;5089527;28;20485;-95
2023/06/27 12:43:46;;;;;;;1.63;1.53;;;23.10;94.80;;;;;;5088364;28;20516;-94
2023/06/27 12:46:13;;;;;;;2.87;1.90;;;23.10;95.80;;;;;;5086746;28;20561;-94
2023/06/27 12:48:44;;;;;;;3.60;2.10;;;23.00;95.00;;;;;;5085890;28;20462;-95
2023/06/27 12:51:12;;;;;;;5.07;2.00;;;22.90;94.50;;;;;;5083923;28;20469;-92
2023/06/27 12:53:41;;;;;;;2.03;1.67;;;22.90;95.80;;;;;;5083504;28;20553;-94
2023/06/27 12:56:08;;;;;;;2.37;2.07;;;22.90;96.40;;;;;;5082739;28;20456;-93
2023/06/27 12:58:36;;;;;;;2.60;2.40;;;22.90;95.00;;;;;;5083984;28;20458;-93
2023/06/27 13:01:16;;;;;;;2.80;2.10;;;22.90;95.40;;;;;;5085767;28;20484;-93
2023/06/27 13:03:52;;;;;;;1.83;1.67;;;23.10;95.50;;;;;;5083318;28;20492;-94
2023/06/27 13:06:36;;;;;;;2.63;1.63;;;23.30;95.30;;;;;;5082104;28;20918;-94
2023/06/27 13:09:04;;;;;;;5.17;1.87;;;23.50;95.50;;;;;;5080684;28;20830;-93
2023/06/27 13:11:31;;;;;;;2.00;1.80;;;23.50;95.70;;;;;;5083810;28;20459;-94
2023/06/27 13:13:58;;;;;;;2.93;2.50;;;23.50;95.20;;;;;;5083861;28;20478;-91
2023/06/27 13:16:24;;;;;;;2.80;2.07;;;23.60;94.90;;;;;;5077784;28;20467;-94
2023/06/27 13:18:51;;;;;;;2.37;2.13;;;23.60;94.50;;;;;;5079097;28;20465;-93
2023/06/27 13:21:18;;;;;;;2.53;2.00;;;23.60;94.90;;;;;;5079590;28;20464;-92
2023/06/27 13:23:47;;;;;;;1.93;1.83;;;23.40;94.50;;;;;;5098983;22;20457;-75
2023/06/27 13:26:15;;;;;;;2.30;2.07;;;23.30;95.30;;;;;;5069353;28;20458;-73
2023/06/27 13:28:43;;;;;;;4.50;2.10;;;23.20;95.50;;;;;;5082392;28;20473;-73
2023/06/27 13:31:10;;;;;;;4.70;2.10;;;23.20;95.00;;;;;;5087364;28;20557;-74
2023/06/27 13:33:37;;;;;;;2.10;1.90;;;23.20;95.60;;;;;;5088943;28;20470;-72
2023/06/27 13:36:05;;;;;;;2.33;2.13;;;23.10;95.10;;;;;;5089773;28;20532;-73
2023/06/27 13:38:32;;;;;;;2.00;1.80;;;23.10;94.10;;;;;;5089668;28;20550;-73
2023/06/27 13:40:59;;;;;;;3.40;2.23;;;23.20;95.10;;;;;;5090053;28;20858;-73
2023/06/27 13:43:27;;;;;;;2.13;1.90;;;23.30;95.80;;;;;;5090003;28;20458;-74
2023/06/27 13:45:54;;;;;;;2.10;1.90;;;23.60;94.60;;;;;;5088707;28;20481;-73
2023/06/27 13:48:21;;;;;;;2.73;1.73;;;23.80;93.70;;;;;;5089961;28;20504;-72
2023/06/27 13:50:48;;;;;;;2.27;2.03;;;23.80;93.50;;;;;;5090250;28;20457;-71
2023/06/27 13:53:15;;;;;;;1.60;1.50;;;23.80;93.80;;;;;;5089772;28;20943;-71
2023/06/27 13:55:42;;;;;;;3.30;2.20;;;23.70;93.50;;;;;;5089744;28;20463;-72
2023/06/27 13:58:09;;;;;;;2.20;1.80;;;23.50;93.80;;;;;;5089375;28;20501;-71
2023/06/27 14:00:37;;;;;;;2.53;2.00;;;23.30;94.20;;;;;;5089194;28;22632;-72
2023/06/27 14:03:04;;;;;;;3.80;2.23;;;23.20;93.80;;;;;;5089797;28;20469;-71